sensor_id;sensor_type;location;lat;lon;timestamp;P1;durP1;ratioP1;P2;durP2;ratioP2
61756;SDS011;57225;61.460;24.060;2023-12-20T00:02:27;5.80;;;1.10;;
61756;SDS011;57225;61.460;24.060;2023-12-20T00:05:13;8.18;;;1.00;;
61756;SDS011;57225;61.460;24.060;2023-12-20T00:07:58;6.75;;;1.00;;
61756;SDS011;57225;61.460;24.060;2023-12-20T00:10:43;7.75;;;0.93;;
61756;SDS011;57225;61.460;24.060;2023-12-20T00:13:27;3.78;;;0.85;;
61756;SDS011;57225;61.460;24.060;2023-12-20T00:16:12;2.53;;;0.63;;
61756;SDS011;57225;61.460;24.060;2023-12-20T00:18:56;7.35;;;0.82;;
61756;SDS011;57225;61.460;24.060;2023-12-20T00:21:41;6.95;;;0.90;;
61756;SDS011;57225;61.460;24.060;2023-12-20T00:24:26;4.75;;;0.60;;
61756;SDS011;57225;61.460;24.060;2023-12-20T00:27:10;6.15;;;0.90;;
61756;SDS011;57225;61.460;24.060;2023-12-20T00:29:54;7.78;;;0.90;;
61756;SDS011;57225;61.460;24.060;2023-12-20T00:32:39;6.20;;;0.93;;
61756;SDS011;57225;61.460;24.060;2023-12-20T00:35:29;9.80;;;1.10;;
61756;SDS011;57225;61.460;24.060;2023-12-20T00:38:14;5.05;;;0.57;;
61756;SDS011;57225;61.460;24.060;2023-12-20T00:40:58;4.43;;;0.68;;
61756;SDS011;57225;61.460;24.060;2023-12-20T00:43:43;6.07;;;0.73;;
61756;SDS011;57225;61.460;24.060;2023-12-20T00:46:28;4.93;;;0.73;;
61756;SDS011;57225;61.460;24.060;2023-12-20T00:49:13;7.90;;;0.73;;
61756;SDS011;57225;61.460;24.060;2023-12-20T00:51:57;5.78;;;0.68;;
61756;SDS011;57225;61.460;24.060;2023-12-20T00:54:42;4.50;;;0.90;;
61756;SDS011;57225;61.460;24.060;2023-12-20T00:57:26;10.95;;;1.15;;
61756;SDS011;57225;61.460;24.060;2023-12-20T01:00:11;5.93;;;0.80;;
61756;SDS011;57225;61.460;24.060;2023-12-20T01:02:57;5.57;;;0.75;;
61756;SDS011;57225;61.460;24.060;2023-12-20T01:05:41;5.47;;;0.80;;
61756;SDS011;57225;61.460;24.060;2023-12-20T01:08:26;9.27;;;1.00;;
61756;SDS011;57225;61.460;24.060;2023-12-20T01:11:10;10.70;;;1.00;;
61756;SDS011;57225;61.460;24.060;2023-12-20T01:13:54;6.30;;;0.60;;
61756;SDS011;57225;61.460;24.060;2023-12-20T01:16:39;7.72;;;0.80;;
61756;SDS011;57225;61.460;24.060;2023-12-20T01:19:24;8.45;;;1.15;;
61756;SDS011;57225;61.460;24.060;2023-12-20T01:22:09;5.05;;;1.38;;
61756;SDS011;57225;61.460;24.060;2023-12-20T01:24:53;11.07;;;1.25;;
61756;SDS011;57225;61.460;24.060;2023-12-20T01:27:38;5.85;;;0.90;;
61756;SDS011;57225;61.460;24.060;2023-12-20T01:30:22;5.80;;;0.70;;
61756;SDS011;57225;61.460;24.060;2023-12-20T01:33:07;5.90;;;0.85;;
61756;SDS011;57225;61.460;24.060;2023-12-20T01:35:51;6.95;;;1.35;;
61756;SDS011;57225;61.460;24.060;2023-12-20T01:38:35;6.32;;;1.10;;
61756;SDS011;57225;61.460;24.060;2023-12-20T01:41:20;5.35;;;0.70;;
61756;SDS011;57225;61.460;24.060;2023-12-20T01:44:04;5.90;;;0.75;;
61756;SDS011;57225;61.460;24.060;2023-12-20T01:46:49;7.43;;;1.08;;
61756;SDS011;57225;61.460;24.060;2023-12-20T01:49:33;6.00;;;1.38;;
61756;SDS011;57225;61.460;24.060;2023-12-20T01:52:18;7.15;;;1.05;;
61756;SDS011;57225;61.460;24.060;2023-12-20T01:55:04;3.20;;;0.70;;
61756;SDS011;57225;61.460;24.060;2023-12-20T01:57:56;10.68;;;0.95;;
61756;SDS011;57225;61.460;24.060;2023-12-20T02:00:42;5.90;;;0.93;;
61756;SDS011;57225;61.460;24.060;2023-12-20T02:03:27;5.07;;;0.80;;
61756;SDS011;57225;61.460;24.060;2023-12-20T02:06:11;6.85;;;0.60;;
61756;SDS011;57225;61.460;24.060;2023-12-20T02:08:57;5.72;;;0.90;;
61756;SDS011;57225;61.460;24.060;2023-12-20T02:11:43;5.28;;;0.77;;
61756;SDS011;57225;61.460;24.060;2023-12-20T02:14:28;5.70;;;0.88;;
61756;SDS011;57225;61.460;24.060;2023-12-20T02:17:12;4.15;;;0.55;;
61756;SDS011;57225;61.460;24.060;2023-12-20T02:19:56;10.05;;;1.02;;
61756;SDS011;57225;61.460;24.060;2023-12-20T02:22:41;13.55;;;1.05;;
61756;SDS011;57225;61.460;24.060;2023-12-20T02:25:25;3.40;;;0.70;;
61756;SDS011;57225;61.460;24.060;2023-12-20T02:28:10;7.03;;;1.00;;
61756;SDS011;57225;61.460;24.060;2023-12-20T02:30:54;8.57;;;1.13;;
61756;SDS011;57225;61.460;24.060;2023-12-20T02:33:39;5.88;;;0.82;;
61756;SDS011;57225;61.460;24.060;2023-12-20T02:36:25;6.30;;;0.85;;
61756;SDS011;57225;61.460;24.060;2023-12-20T02:39:10;7.82;;;1.00;;
61756;SDS011;57225;61.460;24.060;2023-12-20T02:41:54;8.20;;;1.27;;
61756;SDS011;57225;61.460;24.060;2023-12-20T02:44:39;11.82;;;1.00;;
61756;SDS011;57225;61.460;24.060;2023-12-20T02:47:23;10.07;;;1.13;;
61756;SDS011;57225;61.460;24.060;2023-12-20T02:50:08;9.02;;;1.30;;
61756;SDS011;57225;61.460;24.060;2023-12-20T02:52:52;6.65;;;1.02;;
61756;SDS011;57225;61.460;24.060;2023-12-20T02:55:37;6.25;;;0.98;;
61756;SDS011;57225;61.460;24.060;2023-12-20T02:58:21;5.13;;;0.80;;
61756;SDS011;57225;61.460;24.060;2023-12-20T03:01:05;16.88;;;0.95;;
61756;SDS011;57225;61.460;24.060;2023-12-20T03:03:50;9.93;;;1.10;;
61756;SDS011;57225;61.460;24.060;2023-12-20T03:06:35;5.85;;;1.08;;
61756;SDS011;57225;61.460;24.060;2023-12-20T03:09:19;7.10;;;1.00;;
61756;SDS011;57225;61.460;24.060;2023-12-20T03:12:03;11.50;;;0.95;;
61756;SDS011;57225;61.460;24.060;2023-12-20T03:14:48;8.30;;;1.00;;
61756;SDS011;57225;61.460;24.060;2023-12-20T03:17:33;6.43;;;1.20;;
61756;SDS011;57225;61.460;24.060;2023-12-20T03:20:18;5.78;;;0.60;;
61756;SDS011;57225;61.460;24.060;2023-12-20T03:23:03;9.40;;;1.02;;
61756;SDS011;57225;61.460;24.060;2023-12-20T03:25:47;10.40;;;1.73;;
61756;SDS011;57225;61.460;24.060;2023-12-20T03:28:31;3.80;;;0.70;;
61756;SDS011;57225;61.460;24.060;2023-12-20T03:31:16;10.13;;;1.33;;
61756;SDS011;57225;61.460;24.060;2023-12-20T03:34:00;4.35;;;0.80;;
61756;SDS011;57225;61.460;24.060;2023-12-20T03:36:45;8.65;;;0.82;;
61756;SDS011;57225;61.460;24.060;2023-12-20T03:39:31;18.90;;;2.65;;
61756;SDS011;57225;61.460;24.060;2023-12-20T03:42:16;9.13;;;1.52;;
61756;SDS011;57225;61.460;24.060;2023-12-20T03:45:00;4.47;;;0.80;;
61756;SDS011;57225;61.460;24.060;2023-12-20T03:47:45;5.60;;;0.85;;
61756;SDS011;57225;61.460;24.060;2023-12-20T03:50:29;5.88;;;1.20;;
61756;SDS011;57225;61.460;24.060;2023-12-20T03:53:14;9.15;;;1.40;;
61756;SDS011;57225;61.460;24.060;2023-12-20T03:55:58;7.38;;;1.10;;
61756;SDS011;57225;61.460;24.060;2023-12-20T03:58:43;5.25;;;0.70;;
61756;SDS011;57225;61.460;24.060;2023-12-20T04:01:27;6.75;;;0.75;;
61756;SDS011;57225;61.460;24.060;2023-12-20T04:04:12;5.60;;;0.73;;
61756;SDS011;57225;61.460;24.060;2023-12-20T04:06:57;6.80;;;0.95;;
61756;SDS011;57225;61.460;24.060;2023-12-20T04:09:42;10.32;;;1.10;;
61756;SDS011;57225;61.460;24.060;2023-12-20T04:12:30;8.65;;;1.17;;
61756;SDS011;57225;61.460;24.060;2023-12-20T04:15:14;5.97;;;0.77;;
61756;SDS011;57225;61.460;24.060;2023-12-20T04:17:58;3.92;;;0.80;;
61756;SDS011;57225;61.460;24.060;2023-12-20T04:20:43;4.13;;;0.90;;
61756;SDS011;57225;61.460;24.060;2023-12-20T04:23:27;8.80;;;1.33;;
61756;SDS011;57225;61.460;24.060;2023-12-20T04:26:12;10.35;;;1.05;;
61756;SDS011;57225;61.460;24.060;2023-12-20T04:28:56;4.78;;;0.95;;
61756;SDS011;57225;61.460;24.060;2023-12-20T04:31:41;7.78;;;0.98;;
61756;SDS011;57225;61.460;24.060;2023-12-20T04:34:25;9.52;;;0.73;;
61756;SDS011;57225;61.460;24.060;2023-12-20T04:37:10;7.32;;;0.65;;
61756;SDS011;57225;61.460;24.060;2023-12-20T04:39:54;9.32;;;0.75;;
61756;SDS011;57225;61.460;24.060;2023-12-20T04:42:38;6.60;;;0.98;;
61756;SDS011;57225;61.460;24.060;2023-12-20T04:45:23;6.15;;;0.90;;
61756;SDS011;57225;61.460;24.060;2023-12-20T04:48:08;3.95;;;0.85;;
61756;SDS011;57225;61.460;24.060;2023-12-20T04:50:53;6.35;;;0.75;;
61756;SDS011;57225;61.460;24.060;2023-12-20T04:53:38;8.32;;;0.95;;
61756;SDS011;57225;61.460;24.060;2023-12-20T04:56:22;6.85;;;1.20;;
61756;SDS011;57225;61.460;24.060;2023-12-20T04:59:06;4.88;;;0.60;;
61756;SDS011;57225;61.460;24.060;2023-12-20T05:01:51;9.00;;;0.68;;
61756;SDS011;57225;61.460;24.060;2023-12-20T05:04:35;3.60;;;0.70;;
61756;SDS011;57225;61.460;24.060;2023-12-20T05:07:20;6.78;;;0.77;;
61756;SDS011;57225;61.460;24.060;2023-12-20T05:10:04;3.78;;;0.60;;
61756;SDS011;57225;61.460;24.060;2023-12-20T05:12:49;5.82;;;0.80;;
61756;SDS011;57225;61.460;24.060;2023-12-20T05:15:34;4.13;;;0.90;;
61756;SDS011;57225;61.460;24.060;2023-12-20T05:18:18;4.15;;;0.80;;
61756;SDS011;57225;61.460;24.060;2023-12-20T05:21:04;7.60;;;1.00;;
61756;SDS011;57225;61.460;24.060;2023-12-20T05:23:48;9.18;;;0.90;;
61756;SDS011;57225;61.460;24.060;2023-12-20T05:26:33;7.32;;;0.80;;
61756;SDS011;57225;61.460;24.060;2023-12-20T05:29:17;6.38;;;0.70;;
61756;SDS011;57225;61.460;24.060;2023-12-20T05:32:02;5.22;;;0.80;;
61756;SDS011;57225;61.460;24.060;2023-12-20T05:34:48;6.95;;;0.77;;
61756;SDS011;57225;61.460;24.060;2023-12-20T05:37:32;6.88;;;0.63;;
61756;SDS011;57225;61.460;24.060;2023-12-20T05:40:17;6.72;;;0.80;;
61756;SDS011;57225;61.460;24.060;2023-12-20T05:43:01;7.35;;;1.25;;
61756;SDS011;57225;61.460;24.060;2023-12-20T05:46:04;5.70;;;1.27;;
61756;SDS011;57225;61.460;24.060;2023-12-20T05:48:49;5.97;;;0.93;;
61756;SDS011;57225;61.460;24.060;2023-12-20T05:51:35;8.98;;;0.90;;
61756;SDS011;57225;61.460;24.060;2023-12-20T05:54:20;23.02;;;2.67;;
61756;SDS011;57225;61.460;24.060;2023-12-20T05:57:05;9.68;;;1.13;;
61756;SDS011;57225;61.460;24.060;2023-12-20T05:59:49;7.07;;;0.98;;
61756;SDS011;57225;61.460;24.060;2023-12-20T06:02:34;7.47;;;1.00;;
61756;SDS011;57225;61.460;24.060;2023-12-20T06:05:20;4.35;;;0.70;;
61756;SDS011;57225;61.460;24.060;2023-12-20T06:08:05;10.85;;;1.42;;
61756;SDS011;57225;61.460;24.060;2023-12-20T06:10:50;6.80;;;1.30;;
61756;SDS011;57225;61.460;24.060;2023-12-20T06:13:34;9.80;;;1.08;;
61756;SDS011;57225;61.460;24.060;2023-12-20T06:16:19;10.52;;;1.10;;
61756;SDS011;57225;61.460;24.060;2023-12-20T06:19:04;14.98;;;1.35;;
61756;SDS011;57225;61.460;24.060;2023-12-20T06:21:48;9.05;;;1.30;;
61756;SDS011;57225;61.460;24.060;2023-12-20T06:24:32;4.90;;;1.42;;
61756;SDS011;57225;61.460;24.060;2023-12-20T06:27:18;6.80;;;1.10;;
61756;SDS011;57225;61.460;24.060;2023-12-20T06:30:03;6.30;;;1.38;;
61756;SDS011;57225;61.460;24.060;2023-12-20T06:32:49;5.70;;;1.00;;
61756;SDS011;57225;61.460;24.060;2023-12-20T06:35:33;5.65;;;0.80;;
61756;SDS011;57225;61.460;24.060;2023-12-20T06:38:18;4.30;;;0.98;;
61756;SDS011;57225;61.460;24.060;2023-12-20T06:41:03;7.43;;;1.08;;
61756;SDS011;57225;61.460;24.060;2023-12-20T06:43:47;8.90;;;1.80;;
61756;SDS011;57225;61.460;24.060;2023-12-20T06:46:32;2.67;;;0.73;;
61756;SDS011;57225;61.460;24.060;2023-12-20T06:49:16;8.13;;;1.45;;
61756;SDS011;57225;61.460;24.060;2023-12-20T06:52:02;8.45;;;1.10;;
61756;SDS011;57225;61.460;24.060;2023-12-20T06:54:47;12.43;;;1.00;;
61756;SDS011;57225;61.460;24.060;2023-12-20T06:57:31;11.95;;;1.45;;
61756;SDS011;57225;61.460;24.060;2023-12-20T07:00:15;6.72;;;0.98;;
61756;SDS011;57225;61.460;24.060;2023-12-20T07:03:01;9.57;;;1.45;;
61756;SDS011;57225;61.460;24.060;2023-12-20T07:05:45;5.82;;;1.05;;
61756;SDS011;57225;61.460;24.060;2023-12-20T07:08:30;8.32;;;1.27;;
61756;SDS011;57225;61.460;24.060;2023-12-20T07:11:14;9.73;;;1.00;;
61756;SDS011;57225;61.460;24.060;2023-12-20T07:13:59;8.77;;;1.10;;
61756;SDS011;57225;61.460;24.060;2023-12-20T07:16:45;8.95;;;1.20;;
61756;SDS011;57225;61.460;24.060;2023-12-20T07:19:29;7.80;;;1.10;;
61756;SDS011;57225;61.460;24.060;2023-12-20T07:22:14;11.70;;;1.50;;
61756;SDS011;57225;61.460;24.060;2023-12-20T07:24:59;10.38;;;1.13;;
61756;SDS011;57225;61.460;24.060;2023-12-20T07:27:43;6.88;;;1.13;;
61756;SDS011;57225;61.460;24.060;2023-12-20T07:30:28;9.80;;;1.23;;
61756;SDS011;57225;61.460;24.060;2023-12-20T07:33:12;7.68;;;1.05;;
61756;SDS011;57225;61.460;24.060;2023-12-20T07:35:57;10.13;;;1.63;;
61756;SDS011;57225;61.460;24.060;2023-12-20T07:38:43;7.60;;;1.30;;
61756;SDS011;57225;61.460;24.060;2023-12-20T07:41:28;12.18;;;1.25;;
61756;SDS011;57225;61.460;24.060;2023-12-20T07:44:12;14.07;;;1.42;;
61756;SDS011;57225;61.460;24.060;2023-12-20T07:46:57;7.30;;;1.17;;
61756;SDS011;57225;61.460;24.060;2023-12-20T07:49:41;11.88;;;1.63;;
61756;SDS011;57225;61.460;24.060;2023-12-20T07:52:26;11.85;;;1.83;;
61756;SDS011;57225;61.460;24.060;2023-12-20T07:55:10;9.48;;;1.50;;
61756;SDS011;57225;61.460;24.060;2023-12-20T07:57:55;5.38;;;1.20;;
61756;SDS011;57225;61.460;24.060;2023-12-20T08:00:41;3.90;;;0.80;;
61756;SDS011;57225;61.460;24.060;2023-12-20T08:03:26;7.65;;;1.20;;
61756;SDS011;57225;61.460;24.060;2023-12-20T08:06:10;9.48;;;1.30;;
61756;SDS011;57225;61.460;24.060;2023-12-20T08:08:55;7.93;;;1.60;;
61756;SDS011;57225;61.460;24.060;2023-12-20T08:11:39;9.50;;;1.40;;
61756;SDS011;57225;61.460;24.060;2023-12-20T08:14:23;16.38;;;1.55;;
61756;SDS011;57225;61.460;24.060;2023-12-20T08:17:08;9.38;;;1.90;;
61756;SDS011;57225;61.460;24.060;2023-12-20T08:19:52;9.25;;;1.55;;
61756;SDS011;57225;61.460;24.060;2023-12-20T08:22:37;9.75;;;1.40;;
61756;SDS011;57225;61.460;24.060;2023-12-20T08:25:21;7.20;;;1.25;;
61756;SDS011;57225;61.460;24.060;2023-12-20T08:28:06;11.45;;;1.40;;
61756;SDS011;57225;61.460;24.060;2023-12-20T08:30:50;6.22;;;1.17;;
61756;SDS011;57225;61.460;24.060;2023-12-20T08:33:37;9.18;;;1.70;;
61756;SDS011;57225;61.460;24.060;2023-12-20T08:36:21;4.72;;;1.15;;
61756;SDS011;57225;61.460;24.060;2023-12-20T08:39:07;11.00;;;1.30;;
61756;SDS011;57225;61.460;24.060;2023-12-20T08:41:52;15.63;;;1.55;;
61756;SDS011;57225;61.460;24.060;2023-12-20T08:44:36;8.73;;;1.27;;
61756;SDS011;57225;61.460;24.060;2023-12-20T08:47:20;11.07;;;1.42;;
61756;SDS011;57225;61.460;24.060;2023-12-20T08:50:05;8.65;;;1.20;;
61756;SDS011;57225;61.460;24.060;2023-12-20T08:52:50;8.82;;;1.52;;
61756;SDS011;57225;61.460;24.060;2023-12-20T08:55:34;4.88;;;1.13;;
61756;SDS011;57225;61.460;24.060;2023-12-20T08:58:19;12.63;;;1.38;;
61756;SDS011;57225;61.460;24.060;2023-12-20T09:01:03;6.72;;;1.17;;
61756;SDS011;57225;61.460;24.060;2023-12-20T09:03:48;10.35;;;1.90;;
61756;SDS011;57225;61.460;24.060;2023-12-20T09:06:32;9.23;;;1.60;;
61756;SDS011;57225;61.460;24.060;2023-12-20T09:09:17;7.22;;;1.42;;
61756;SDS011;57225;61.460;24.060;2023-12-20T09:12:02;8.32;;;1.02;;
61756;SDS011;57225;61.460;24.060;2023-12-20T09:14:47;11.02;;;1.35;;
61756;SDS011;57225;61.460;24.060;2023-12-20T09:17:32;7.80;;;1.20;;
61756;SDS011;57225;61.460;24.060;2023-12-20T09:20:17;9.30;;;1.40;;
61756;SDS011;57225;61.460;24.060;2023-12-20T09:23:01;11.80;;;1.50;;
61756;SDS011;57225;61.460;24.060;2023-12-20T09:25:46;13.57;;;1.30;;
61756;SDS011;57225;61.460;24.060;2023-12-20T09:28:31;9.05;;;1.20;;
61756;SDS011;57225;61.460;24.060;2023-12-20T09:31:20;14.70;;;1.55;;
61756;SDS011;57225;61.460;24.060;2023-12-20T09:34:05;5.90;;;1.40;;
61756;SDS011;57225;61.460;24.060;2023-12-20T09:36:49;12.93;;;1.73;;
61756;SDS011;57225;61.460;24.060;2023-12-20T09:39:34;11.38;;;1.52;;
61756;SDS011;57225;61.460;24.060;2023-12-20T09:42:21;7.05;;;1.40;;
61756;SDS011;57225;61.460;24.060;2023-12-20T09:45:23;10.27;;;1.73;;
61756;SDS011;57225;61.460;24.060;2023-12-20T09:48:08;7.22;;;1.25;;
61756;SDS011;57225;61.460;24.060;2023-12-20T09:50:56;7.40;;;1.35;;
61756;SDS011;57225;61.460;24.060;2023-12-20T09:53:40;13.45;;;1.50;;
61756;SDS011;57225;61.460;24.060;2023-12-20T09:56:26;6.82;;;1.27;;
61756;SDS011;57225;61.460;24.060;2023-12-20T09:59:11;10.13;;;1.25;;
61756;SDS011;57225;61.460;24.060;2023-12-20T10:01:55;12.07;;;1.60;;
61756;SDS011;57225;61.460;24.060;2023-12-20T10:04:42;5.25;;;1.27;;
61756;SDS011;57225;61.460;24.060;2023-12-20T10:07:31;9.60;;;1.33;;
61756;SDS011;57225;61.460;24.060;2023-12-20T10:10:16;12.60;;;1.25;;
61756;SDS011;57225;61.460;24.060;2023-12-20T10:13:07;16.45;;;1.83;;
61756;SDS011;57225;61.460;24.060;2023-12-20T10:15:54;14.23;;;1.50;;
61756;SDS011;57225;61.460;24.060;2023-12-20T10:18:39;10.48;;;1.50;;
61756;SDS011;57225;61.460;24.060;2023-12-20T10:21:24;16.35;;;1.77;;
61756;SDS011;57225;61.460;24.060;2023-12-20T10:24:10;6.75;;;1.15;;
61756;SDS011;57225;61.460;24.060;2023-12-20T10:27:02;8.10;;;2.10;;
61756;SDS011;57225;61.460;24.060;2023-12-20T10:29:50;10.50;;;1.80;;
61756;SDS011;57225;61.460;24.060;2023-12-20T10:32:35;7.50;;;1.25;;
61756;SDS011;57225;61.460;24.060;2023-12-20T10:35:20;16.63;;;1.33;;
61756;SDS011;57225;61.460;24.060;2023-12-20T10:38:05;9.95;;;1.15;;
61756;SDS011;57225;61.460;24.060;2023-12-20T10:40:50;9.18;;;1.55;;
61756;SDS011;57225;61.460;24.060;2023-12-20T10:43:38;7.65;;;1.52;;
61756;SDS011;57225;61.460;24.060;2023-12-20T10:46:24;7.05;;;1.40;;
61756;SDS011;57225;61.460;24.060;2023-12-20T10:49:09;8.85;;;1.25;;
61756;SDS011;57225;61.460;24.060;2023-12-20T10:51:54;6.13;;;1.15;;
61756;SDS011;57225;61.460;24.060;2023-12-20T10:54:41;12.30;;;1.30;;
61756;SDS011;57225;61.460;24.060;2023-12-20T10:57:26;10.50;;;1.15;;
61756;SDS011;57225;61.460;24.060;2023-12-20T11:00:12;16.75;;;2.10;;
61756;SDS011;57225;61.460;24.060;2023-12-20T11:03:00;4.13;;;1.08;;
61756;SDS011;57225;61.460;24.060;2023-12-20T11:08:49;11.80;;;1.50;;
61756;SDS011;57225;61.460;24.060;2023-12-20T11:11:42;5.35;;;0.90;;
61756;SDS011;57225;61.460;24.060;2023-12-20T11:17:32;5.32;;;1.40;;
61756;SDS011;57225;61.460;24.060;2023-12-20T11:20:16;11.73;;;1.13;;
61756;SDS011;57225;61.460;24.060;2023-12-20T11:23:02;9.80;;;1.48;;
61756;SDS011;57225;61.460;24.060;2023-12-20T11:25:53;10.15;;;1.70;;
61756;SDS011;57225;61.460;24.060;2023-12-20T11:28:41;7.88;;;1.15;;
61756;SDS011;57225;61.460;24.060;2023-12-20T11:31:25;8.98;;;1.27;;
61756;SDS011;57225;61.460;24.060;2023-12-20T11:34:14;3.08;;;0.95;;
61756;SDS011;57225;61.460;24.060;2023-12-20T11:37:02;7.85;;;1.63;;
61756;SDS011;57225;61.460;24.060;2023-12-20T11:39:56;3.22;;;1.10;;
61756;SDS011;57225;61.460;24.060;2023-12-20T11:42:44;7.95;;;1.10;;
61756;SDS011;57225;61.460;24.060;2023-12-20T11:48:38;11.30;;;1.10;;
61756;SDS011;57225;61.460;24.060;2023-12-20T11:51:27;8.52;;;1.15;;
61756;SDS011;57225;61.460;24.060;2023-12-20T11:54:12;7.07;;;1.10;;
61756;SDS011;57225;61.460;24.060;2023-12-20T11:56:59;11.00;;;1.20;;
61756;SDS011;57225;61.460;24.060;2023-12-20T11:59:43;14.27;;;1.40;;
61756;SDS011;57225;61.460;24.060;2023-12-20T12:02:28;11.35;;;1.27;;
61756;SDS011;57225;61.460;24.060;2023-12-20T12:05:12;9.57;;;2.20;;
61756;SDS011;57225;61.460;24.060;2023-12-20T12:07:58;9.38;;;1.70;;
61756;SDS011;57225;61.460;24.060;2023-12-20T12:10:43;7.95;;;1.30;;
61756;SDS011;57225;61.460;24.060;2023-12-20T12:13:28;8.90;;;1.27;;
61756;SDS011;57225;61.460;24.060;2023-12-20T12:16:16;12.15;;;1.67;;
61756;SDS011;57225;61.460;24.060;2023-12-20T12:19:02;14.20;;;2.08;;
61756;SDS011;57225;61.460;24.060;2023-12-20T12:21:48;10.85;;;1.15;;
61756;SDS011;57225;61.460;24.060;2023-12-20T12:24:33;10.60;;;1.50;;
61756;SDS011;57225;61.460;24.060;2023-12-20T12:27:18;9.98;;;2.00;;
61756;SDS011;57225;61.460;24.060;2023-12-20T12:30:03;9.13;;;1.42;;
61756;SDS011;57225;61.460;24.060;2023-12-20T12:32:51;9.40;;;1.23;;
61756;SDS011;57225;61.460;24.060;2023-12-20T12:35:36;7.90;;;1.25;;
61756;SDS011;57225;61.460;24.060;2023-12-20T12:38:21;9.00;;;1.48;;
61756;SDS011;57225;61.460;24.060;2023-12-20T12:41:06;16.27;;;1.40;;
61756;SDS011;57225;61.460;24.060;2023-12-20T12:43:51;4.05;;;1.10;;
61756;SDS011;57225;61.460;24.060;2023-12-20T12:46:35;15.70;;;1.77;;
61756;SDS011;57225;61.460;24.060;2023-12-20T12:49:20;13.43;;;1.90;;
61756;SDS011;57225;61.460;24.060;2023-12-20T12:52:05;7.15;;;1.70;;
61756;SDS011;57225;61.460;24.060;2023-12-20T12:54:49;9.05;;;1.70;;
61756;SDS011;57225;61.460;24.060;2023-12-20T12:57:34;11.98;;;1.50;;
61756;SDS011;57225;61.460;24.060;2023-12-20T13:00:19;7.55;;;1.50;;
61756;SDS011;57225;61.460;24.060;2023-12-20T13:03:03;7.97;;;1.42;;
61756;SDS011;57225;61.460;24.060;2023-12-20T13:05:47;11.55;;;1.95;;
61756;SDS011;57225;61.460;24.060;2023-12-20T13:08:33;9.63;;;1.45;;
61756;SDS011;57225;61.460;24.060;2023-12-20T13:11:17;7.30;;;1.48;;
61756;SDS011;57225;61.460;24.060;2023-12-20T13:14:02;7.85;;;1.45;;
61756;SDS011;57225;61.460;24.060;2023-12-20T13:16:47;12.77;;;1.80;;
61756;SDS011;57225;61.460;24.060;2023-12-20T13:19:31;9.88;;;2.10;;
61756;SDS011;57225;61.460;24.060;2023-12-20T13:22:16;9.70;;;1.55;;
61756;SDS011;57225;61.460;24.060;2023-12-20T13:25:00;10.30;;;1.70;;
61756;SDS011;57225;61.460;24.060;2023-12-20T13:27:46;4.30;;;1.30;;
61756;SDS011;57225;61.460;24.060;2023-12-20T13:30:30;14.00;;;1.58;;
61756;SDS011;57225;61.460;24.060;2023-12-20T13:33:15;10.68;;;1.83;;
61756;SDS011;57225;61.460;24.060;2023-12-20T13:36:00;14.68;;;1.70;;
61756;SDS011;57225;61.460;24.060;2023-12-20T13:38:44;8.27;;;1.33;;
61756;SDS011;57225;61.460;24.060;2023-12-20T13:41:29;11.90;;;1.77;;
61756;SDS011;57225;61.460;24.060;2023-12-20T13:44:14;14.73;;;2.50;;
61756;SDS011;57225;61.460;24.060;2023-12-20T13:46:58;12.50;;;2.45;;
61756;SDS011;57225;61.460;24.060;2023-12-20T13:49:43;10.18;;;1.92;;
61756;SDS011;57225;61.460;24.060;2023-12-20T13:52:27;6.95;;;1.70;;
61756;SDS011;57225;61.460;24.060;2023-12-20T13:55:12;8.57;;;1.65;;
61756;SDS011;57225;61.460;24.060;2023-12-20T13:57:56;11.48;;;2.22;;
61756;SDS011;57225;61.460;24.060;2023-12-20T14:00:41;15.52;;;2.25;;
61756;SDS011;57225;61.460;24.060;2023-12-20T14:03:25;10.43;;;1.80;;
61756;SDS011;57225;61.460;24.060;2023-12-20T14:06:10;7.85;;;1.50;;
61756;SDS011;57225;61.460;24.060;2023-12-20T14:08:54;6.45;;;1.42;;
61756;SDS011;57225;61.460;24.060;2023-12-20T14:11:38;6.70;;;1.20;;
61756;SDS011;57225;61.460;24.060;2023-12-20T14:14:24;6.82;;;1.42;;
61756;SDS011;57225;61.460;24.060;2023-12-20T14:17:09;12.02;;;2.22;;
61756;SDS011;57225;61.460;24.060;2023-12-20T14:19:53;10.52;;;1.60;;
61756;SDS011;57225;61.460;24.060;2023-12-20T14:22:38;9.13;;;1.98;;
61756;SDS011;57225;61.460;24.060;2023-12-20T14:25:27;12.30;;;1.88;;
61756;SDS011;57225;61.460;24.060;2023-12-20T14:28:11;8.43;;;1.30;;
61756;SDS011;57225;61.460;24.060;2023-12-20T14:30:57;7.03;;;1.77;;
61756;SDS011;57225;61.460;24.060;2023-12-20T14:33:42;13.98;;;2.83;;
61756;SDS011;57225;61.460;24.060;2023-12-20T14:36:26;10.77;;;2.10;;
61756;SDS011;57225;61.460;24.060;2023-12-20T14:39:11;11.27;;;2.15;;
61756;SDS011;57225;61.460;24.060;2023-12-20T14:41:56;11.35;;;2.67;;
61756;SDS011;57225;61.460;24.060;2023-12-20T14:44:40;9.07;;;1.92;;
61756;SDS011;57225;61.460;24.060;2023-12-20T14:47:25;16.77;;;3.33;;
61756;SDS011;57225;61.460;24.060;2023-12-20T14:50:10;15.15;;;2.65;;
61756;SDS011;57225;61.460;24.060;2023-12-20T14:53:00;12.50;;;2.42;;
61756;SDS011;57225;61.460;24.060;2023-12-20T14:55:45;15.77;;;2.90;;
61756;SDS011;57225;61.460;24.060;2023-12-20T14:58:30;17.30;;;2.95;;
61756;SDS011;57225;61.460;24.060;2023-12-20T15:01:15;10.77;;;2.30;;
61756;SDS011;57225;61.460;24.060;2023-12-20T15:04:01;11.55;;;2.45;;
61756;SDS011;57225;61.460;24.060;2023-12-20T15:06:45;12.43;;;2.72;;
61756;SDS011;57225;61.460;24.060;2023-12-20T15:09:30;10.73;;;2.42;;
61756;SDS011;57225;61.460;24.060;2023-12-20T15:12:14;8.02;;;2.55;;
61756;SDS011;57225;61.460;24.060;2023-12-20T15:14:59;11.50;;;2.63;;
61756;SDS011;57225;61.460;24.060;2023-12-20T15:17:43;11.55;;;2.58;;
61756;SDS011;57225;61.460;24.060;2023-12-20T15:20:28;10.35;;;2.55;;
61756;SDS011;57225;61.460;24.060;2023-12-20T15:23:17;13.55;;;3.33;;
61756;SDS011;57225;61.460;24.060;2023-12-20T15:26:03;16.30;;;3.10;;
61756;SDS011;57225;61.460;24.060;2023-12-20T15:28:51;14.10;;;2.85;;
61756;SDS011;57225;61.460;24.060;2023-12-20T15:31:42;17.43;;;3.33;;
61756;SDS011;57225;61.460;24.060;2023-12-20T15:34:27;11.30;;;3.15;;
61756;SDS011;57225;61.460;24.060;2023-12-20T15:37:12;14.88;;;3.67;;
61756;SDS011;57225;61.460;24.060;2023-12-20T15:39:56;20.20;;;4.75;;
61756;SDS011;57225;61.460;24.060;2023-12-20T15:42:41;12.57;;;4.22;;
61756;SDS011;57225;61.460;24.060;2023-12-20T15:45:26;11.98;;;4.18;;
61756;SDS011;57225;61.460;24.060;2023-12-20T15:48:10;15.50;;;3.97;;
61756;SDS011;57225;61.460;24.060;2023-12-20T15:50:56;12.15;;;3.60;;
61756;SDS011;57225;61.460;24.060;2023-12-20T15:53:41;13.95;;;4.07;;
61756;SDS011;57225;61.460;24.060;2023-12-20T15:56:25;13.48;;;4.00;;
61756;SDS011;57225;61.460;24.060;2023-12-20T15:59:10;14.73;;;3.63;;
61756;SDS011;57225;61.460;24.060;2023-12-20T16:01:54;10.75;;;3.33;;
61756;SDS011;57225;61.460;24.060;2023-12-20T16:04:39;16.10;;;4.20;;
61756;SDS011;57225;61.460;24.060;2023-12-20T16:07:23;15.02;;;4.20;;
61756;SDS011;57225;61.460;24.060;2023-12-20T16:10:08;10.63;;;3.58;;
61756;SDS011;57225;61.460;24.060;2023-12-20T16:12:52;14.45;;;3.47;;
61756;SDS011;57225;61.460;24.060;2023-12-20T16:15:36;17.80;;;5.55;;
61756;SDS011;57225;61.460;24.060;2023-12-20T16:18:21;19.35;;;6.50;;
61756;SDS011;57225;61.460;24.060;2023-12-20T16:21:06;17.02;;;5.35;;
61756;SDS011;57225;61.460;24.060;2023-12-20T16:23:50;17.98;;;6.30;;
61756;SDS011;57225;61.460;24.060;2023-12-20T16:26:34;17.98;;;6.18;;